ESOE/ORB METAR and TAF weather

Enter ICAO airport designator
Station Type Date Time Source
ESOE METAR 2019/02/23 16:50 UTC NOAA

ESOE 231650Z AUTO 25009KT 210V280 4800 BR OVC003/// 04/03 Q1033


Station Type Date Time Source
ESOE Decoded METAR 2019/02/23 16:50 UTC NOAA

Orebro Private , Sweden (ESOE) 59-14N 015-03E
Feb 23, 2019 - 11:50 AM EST / 2019.02.23 1650 UTC
Wind: from the WSW (250 degrees) at 10 MPH (9 KT) (direction variable):0
Visibility: 2 mile(s):0
Sky conditions: overcast
Weather: mist
Temperature: 39 F (4 C)
Dew Point: 37 F (3 C)
Relative Humidity: 93%
Pressure (altimeter): 30.50 in. Hg (1033 hPa)
ob: ESOE 231650Z AUTO 25009KT 210V280 4800 BR OVC003/// 04/03 Q1033
cycle: 17

Station Type Date Time Source
ESOE TAF 2016/03/16 04:36 UTC NOAA

TAF TAF ESOE 160330Z 1604/1624 23005KT 9000 BR NSC PROB40 1604/1607 1200 BR


Example: see airport list